createdAt,value
2022-08-03T00:00:35.426Z,2.97
2022-08-03T00:03:03.669Z,2.80
2022-08-03T00:05:33.024Z,2.28
2022-08-03T00:08:01.381Z,2.25
2022-08-03T00:10:31.264Z,3.03
2022-08-03T00:12:59.594Z,3.28
2022-08-03T00:15:27.792Z,2.80
2022-08-03T00:17:56.154Z,2.70
2022-08-03T00:20:24.306Z,2.80
2022-08-03T00:22:52.858Z,2.75
2022-08-03T00:25:21.017Z,2.40
2022-08-03T00:27:50.889Z,2.90
2022-08-03T00:30:19.066Z,2.90
2022-08-03T00:32:48.174Z,2.63
2022-08-03T00:35:36.726Z,2.65
2022-08-03T00:38:05.162Z,2.80
2022-08-03T00:40:33.964Z,2.78
2022-08-03T00:43:05.188Z,3.10
2022-08-03T00:45:34.817Z,3.13
2022-08-03T00:48:04.326Z,2.80
2022-08-03T00:50:35.846Z,3.38
2022-08-03T00:53:07.731Z,2.92
2022-08-03T00:55:37.758Z,2.90
2022-08-03T00:58:07.572Z,2.40
2022-08-03T01:00:38.972Z,2.58
2022-08-03T01:03:07.927Z,3.20
2022-08-03T01:05:43.938Z,3.35
2022-08-03T01:08:20.902Z,2.67
2022-08-03T01:10:55.885Z,2.58
2022-08-03T01:14:03.888Z,2.65
2022-08-03T01:16:25.916Z,2.63
2022-08-03T01:19:16.438Z,2.63
2022-08-03T01:21:54.892Z,2.65
2022-08-03T01:24:36.572Z,3.88
2022-08-03T01:27:13.785Z,3.60
2022-08-03T01:30:03.578Z,2.85
2022-08-03T01:32:59.599Z,3.25
2022-08-03T01:35:30.390Z,3.65
2022-08-03T01:38:01.951Z,3.38
2022-08-03T01:40:32.632Z,3.60
2022-08-03T01:43:03.061Z,3.03
2022-08-03T01:45:34.062Z,3.58
2022-08-03T01:48:03.875Z,3.38
2022-08-03T01:50:34.400Z,3.70
2022-08-03T01:53:03.510Z,3.92
2022-08-03T01:55:34.325Z,3.95
2022-08-03T01:58:06.789Z,3.58
2022-08-03T02:00:37.850Z,4.05
2022-08-03T02:03:07.838Z,3.92
2022-08-03T02:05:37.084Z,3.50
2022-08-03T02:08:07.785Z,3.67
2022-08-03T02:10:37.412Z,3.30
2022-08-03T02:13:07.787Z,3.13
2022-08-03T02:15:38.683Z,3.22
2022-08-03T02:18:09.906Z,2.85
2022-08-03T02:20:39.006Z,4.13
2022-08-03T02:23:08.629Z,3.47
2022-08-03T02:25:44.185Z,3.42
2022-08-03T02:28:16.600Z,3.50
2022-08-03T02:30:51.788Z,3.47
2022-08-03T02:33:28.239Z,3.55
2022-08-03T02:35:58.353Z,4.03
2022-08-03T02:38:30.086Z,4.60
2022-08-03T02:40:59.326Z,5.03
2022-08-03T02:43:40.270Z,4.22
2022-08-03T02:46:23.847Z,4.68
2022-08-03T02:48:54.981Z,4.50
2022-08-03T02:51:24.953Z,4.43
2022-08-03T02:53:54.921Z,4.50
2022-08-03T02:56:25.301Z,4.70
2022-08-03T02:58:54.452Z,4.15
2022-08-03T03:01:26.430Z,4.70
2022-08-03T03:03:56.481Z,4.15
2022-08-03T03:06:26.748Z,3.25
2022-08-03T03:08:59.840Z,5.05
2022-08-03T03:11:28.515Z,4.88
2022-08-03T03:13:58.976Z,4.80
2022-08-03T03:16:30.410Z,4.13
2022-08-03T03:18:59.612Z,5.00
2022-08-03T03:21:28.813Z,4.68
2022-08-03T03:23:57.679Z,4.38
2022-08-03T03:26:25.746Z,4.78
2022-08-03T03:28:54.164Z,5.28
2022-08-03T03:31:23.070Z,3.80
2022-08-03T03:33:52.735Z,3.80
2022-08-03T03:36:21.094Z,4.50
2022-08-03T03:38:49.177Z,4.82
2022-08-03T03:41:17.621Z,4.28
2022-08-03T03:43:45.671Z,4.55
2022-08-03T03:46:17.983Z,4.47
2022-08-03T03:48:46.483Z,4.57
2022-08-03T03:51:16.880Z,4.80
2022-08-03T03:53:56.365Z,5.35
2022-08-03T03:56:25.128Z,5.68
2022-08-03T03:58:54.105Z,5.32
2022-08-03T04:01:22.464Z,4.68
2022-08-03T04:03:50.759Z,5.28
2022-08-03T04:06:38.004Z,5.43
2022-08-03T04:09:25.125Z,5.10
2022-08-03T04:11:54.990Z,5.63
2022-08-03T04:14:26.957Z,6.05
2022-08-03T04:17:00.164Z,5.22
2022-08-03T04:19:32.422Z,6.05
2022-08-03T04:22:06.402Z,5.32
2022-08-03T04:24:39.393Z,5.97
2022-08-03T04:27:10.672Z,6.22
2022-08-03T04:29:46.457Z,5.50
2022-08-03T04:32:18.371Z,6.10
2022-08-03T04:34:47.201Z,5.53
2022-08-03T04:37:25.613Z,5.22
2022-08-03T04:39:57.725Z,5.43
2022-08-03T04:42:26.936Z,5.70
2022-08-03T04:45:01.175Z,5.22
2022-08-03T04:47:32.035Z,5.30
2022-08-03T04:50:01.821Z,5.22
2022-08-03T04:52:32.432Z,5.43
2022-08-03T04:55:00.551Z,5.72
2022-08-03T04:57:29.015Z,5.82
2022-08-03T05:00:02.667Z,5.30
2022-08-03T05:02:32.099Z,5.18
2022-08-03T05:05:00.844Z,5.43
2022-08-03T05:07:35.465Z,4.85
2022-08-03T05:10:14.945Z,5.72
2022-08-03T05:12:45.676Z,5.50
2022-08-03T05:15:14.038Z,5.90
2022-08-03T05:17:42.985Z,5.38
2022-08-03T05:20:12.593Z,5.57
2022-08-03T05:22:40.705Z,5.57
2022-08-03T05:25:19.811Z,5.60
2022-08-03T05:27:49.785Z,4.80
2022-08-03T05:30:29.806Z,5.03
2022-08-03T05:33:02.403Z,5.07
2022-08-03T05:35:57.286Z,4.55
2022-08-03T05:38:28.337Z,4.68
2022-08-03T05:41:20.962Z,4.07
2022-08-03T05:43:47.883Z,4.10
2022-08-03T05:46:16.574Z,3.92
2022-08-03T05:48:44.696Z,3.58
2022-08-03T05:51:13.502Z,4.22
2022-08-03T05:53:42.145Z,3.70
2022-08-03T05:56:14.330Z,4.60
2022-08-03T05:58:44.484Z,4.15
2022-08-03T06:01:13.230Z,3.78
2022-08-03T06:03:41.480Z,3.88
2022-08-03T06:06:09.841Z,3.08
2022-08-03T06:08:38.221Z,4.18
2022-08-03T06:11:06.418Z,3.05
2022-08-03T06:13:36.099Z,3.28
2022-08-03T06:16:04.777Z,3.05
2022-08-03T06:18:33.085Z,4.00
2022-08-03T06:21:14.814Z,3.47
2022-08-03T06:23:53.264Z,3.22
2022-08-03T06:26:27.675Z,2.88
2022-08-03T06:28:57.588Z,3.20
2022-08-03T06:31:32.640Z,3.25
2022-08-03T06:34:32.769Z,3.50
2022-08-03T06:36:52.937Z,3.65
2022-08-03T06:39:23.628Z,2.90
2022-08-03T06:41:53.470Z,2.50
2022-08-03T06:44:23.111Z,2.00
2022-08-03T06:46:51.777Z,2.30
2022-08-03T06:49:20.277Z,2.38
2022-08-03T06:52:04.568Z,2.33
2022-08-03T06:54:37.872Z,2.38
2022-08-03T06:57:08.163Z,2.40
2022-08-03T07:00:07.971Z,1.90
2022-08-03T07:02:28.450Z,2.00
2022-08-03T07:04:57.201Z,2.15
2022-08-03T07:07:25.527Z,1.85
2022-08-03T07:09:57.785Z,1.70
2022-08-03T07:12:27.612Z,1.70
2022-08-03T07:15:02.591Z,1.60
2022-08-03T07:17:33.306Z,1.58
2022-08-03T07:20:02.822Z,1.55
2022-08-03T07:22:31.308Z,1.70
2022-08-03T07:24:59.743Z,1.55
2022-08-03T07:27:29.257Z,1.45
2022-08-03T07:29:59.707Z,1.40
2022-08-03T07:32:31.177Z,1.30
2022-08-03T07:35:01.195Z,1.70
2022-08-03T07:37:30.868Z,1.80
2022-08-03T07:39:59.570Z,1.75
2022-08-03T07:42:27.862Z,1.60
2022-08-03T07:44:56.266Z,1.75
2022-08-03T07:47:35.732Z,1.15
2022-08-03T07:50:05.271Z,1.45
2022-08-03T07:52:53.429Z,1.70
2022-08-03T07:55:23.579Z,1.67
2022-08-03T07:58:01.843Z,1.70
2022-08-03T08:00:29.882Z,1.40
2022-08-03T08:02:59.412Z,1.42
2022-08-03T08:05:28.079Z,1.20
2022-08-03T08:07:56.491Z,1.58
2022-08-03T08:10:24.911Z,1.67
2022-08-03T08:12:53.113Z,1.85
2022-08-03T08:15:21.337Z,1.50
2022-08-03T08:17:51.862Z,1.77
2022-08-03T08:20:27.943Z,1.50
2022-08-03T08:22:57.558Z,1.58
2022-08-03T08:25:26.679Z,1.55
2022-08-03T08:28:31.803Z,1.27
2022-08-03T08:30:43.687Z,1.20
2022-08-03T08:33:22.419Z,1.25
2022-08-03T08:35:54.429Z,1.05
2022-08-03T08:38:22.952Z,1.02
2022-08-03T08:40:51.317Z,1.20
2022-08-03T08:43:19.478Z,1.63
2022-08-03T08:45:49.974Z,1.40
2022-08-03T08:48:21.447Z,1.42
2022-08-03T08:50:53.343Z,1.20
2022-08-03T08:53:27.186Z,1.30
2022-08-03T08:56:00.687Z,1.38
2022-08-03T08:58:31.399Z,1.40
2022-08-03T09:00:59.818Z,1.10
2022-08-03T09:03:30.421Z,1.10
2022-08-03T09:06:01.542Z,1.30
2022-08-03T09:08:32.555Z,1.30
2022-08-03T09:11:00.971Z,1.33
2022-08-03T09:13:30.468Z,1.10
2022-08-03T09:16:15.659Z,1.10
2022-08-03T09:18:45.022Z,1.60
2022-08-03T09:21:36.753Z,1.33
2022-08-03T09:24:16.359Z,1.40
2022-08-03T09:26:53.831Z,1.48
2022-08-03T09:29:23.693Z,1.02
2022-08-03T09:32:02.663Z,1.17
2022-08-03T09:34:30.800Z,1.30
2022-08-03T09:36:59.321Z,1.15
2022-08-03T09:39:40.759Z,1.60
2022-08-03T09:42:14.731Z,1.58
2022-08-03T09:44:45.338Z,1.60
2022-08-03T09:47:14.842Z,1.50
2022-08-03T09:49:55.717Z,1.60
2022-08-03T09:52:39.471Z,1.60
2022-08-03T09:55:23.522Z,1.70
2022-08-03T09:58:10.438Z,1.27
2022-08-03T10:00:55.048Z,1.52
2022-08-03T10:03:23.960Z,1.58
2022-08-03T10:05:56.025Z,1.42
2022-08-03T10:08:27.480Z,1.60
2022-08-03T10:10:58.698Z,1.55
2022-08-03T10:13:26.993Z,1.17
2022-08-03T10:16:21.600Z,2.00
2022-08-03T10:18:43.110Z,1.63
2022-08-03T10:21:14.628Z,1.98
2022-08-03T10:26:14.452Z,2.30
2022-08-03T10:31:19.367Z,2.47
2022-08-03T10:33:53.150Z,2.38
2022-08-03T10:36:25.430Z,2.72
2022-08-03T10:38:54.489Z,2.60
2022-08-03T10:41:27.696Z,2.63
2022-08-03T10:43:59.974Z,2.63
2022-08-03T10:46:29.586Z,2.83
2022-08-03T10:48:58.690Z,3.33
2022-08-03T10:51:32.148Z,3.28
2022-08-03T10:54:01.945Z,2.80
2022-08-03T10:57:03.393Z,3.30
2022-08-03T11:03:02.785Z,2.80
2022-08-03T11:05:32.372Z,3.00
2022-08-03T11:08:21.824Z,3.00
2022-08-03T11:10:50.727Z,3.20
2022-08-03T11:13:21.785Z,3.63
2022-08-03T11:18:19.668Z,3.25
2022-08-03T11:20:49.047Z,3.30
2022-08-03T11:23:19.165Z,2.97
2022-08-03T11:26:15.765Z,3.78
2022-08-03T11:28:46.418Z,3.28
2022-08-03T11:31:50.429Z,3.38
2022-08-03T11:34:19.039Z,2.97
2022-08-03T11:37:29.979Z,3.40
2022-08-03T11:40:02.811Z,3.33
2022-08-03T11:42:50.664Z,3.20
2022-08-03T11:45:20.197Z,3.13
2022-08-03T11:47:51.478Z,3.00
2022-08-03T11:50:21.547Z,3.17
2022-08-03T11:52:50.755Z,3.50
2022-08-03T11:55:22.201Z,2.38
2022-08-03T11:59:17.273Z,2.55
2022-08-03T12:00:40.641Z,2.47
2022-08-03T12:03:11.726Z,2.35
2022-08-03T12:05:51.747Z,2.67
2022-08-03T12:08:31.987Z,2.38
2022-08-03T12:11:02.378Z,2.58
2022-08-03T12:14:45.122Z,2.10
2022-08-03T12:16:31.470Z,2.30
2022-08-03T12:19:00.709Z,2.22
2022-08-03T12:27:25.609Z,1.80
2022-08-03T12:29:58.718Z,1.77
2022-08-03T12:32:47.044Z,1.60
2022-08-03T12:35:25.221Z,1.67
2022-08-03T12:37:53.464Z,1.80
2022-08-03T12:40:28.557Z,1.85
2022-08-03T12:42:56.879Z,1.77
2022-08-03T12:45:26.996Z,1.83
2022-08-03T12:47:56.697Z,1.80
2022-08-03T12:50:31.569Z,1.85
2022-08-03T12:53:00.953Z,2.05
2022-08-03T12:59:40.428Z,1.85
2022-08-03T13:02:17.681Z,1.50
2022-08-03T13:04:46.968Z,1.60
2022-08-03T13:07:18.116Z,1.60
2022-08-03T13:10:27.816Z,1.45
2022-08-03T13:23:32.001Z,1.85
2022-08-03T13:35:03.528Z,1.67
2022-08-03T13:37:32.451Z,1.40
2022-08-03T13:40:04.733Z,1.60
2022-08-03T13:42:34.970Z,1.30
2022-08-03T13:45:03.742Z,1.35
2022-08-03T13:47:32.019Z,1.60
2022-08-03T13:50:02.859Z,1.65
2022-08-03T13:52:36.137Z,1.52
2022-08-03T13:56:08.357Z,1.35
2022-08-03T14:01:55.242Z,1.73
2022-08-03T14:33:54.824Z,2.20
2022-08-03T14:42:29.774Z,1.88
2022-08-03T14:45:02.596Z,2.03
2022-08-03T14:50:37.901Z,1.75
2022-08-03T14:52:49.064Z,2.20
2022-08-03T14:55:17.099Z,2.05
2022-08-03T14:57:45.313Z,1.80
2022-08-03T15:00:14.362Z,1.77
2022-08-03T15:02:42.709Z,2.03
2022-08-03T15:05:12.721Z,1.88
2022-08-03T15:07:40.973Z,1.70
2022-08-03T15:10:09.804Z,1.80
2022-08-03T15:12:37.868Z,1.85
2022-08-03T15:15:06.733Z,2.30
2022-08-03T15:17:34.819Z,1.90
2022-08-03T15:20:28.745Z,1.50
2022-08-03T15:22:53.090Z,2.40
2022-08-03T15:26:32.314Z,2.10
2022-08-03T15:28:09.218Z,1.92
2022-08-03T15:30:38.982Z,1.98
2022-08-03T15:33:07.228Z,2.42
2022-08-03T15:35:35.467Z,1.23
2022-08-03T15:38:09.239Z,1.98
2022-08-03T15:40:38.313Z,2.28
2022-08-03T15:43:06.596Z,1.33
2022-08-03T15:45:36.158Z,2.00
2022-08-03T15:48:05.822Z,1.48
2022-08-03T15:50:33.939Z,1.80
2022-08-03T15:53:01.977Z,1.75
2022-08-03T15:55:32.089Z,2.00
2022-08-03T15:59:03.204Z,2.22
2022-08-03T16:00:48.590Z,1.90
2022-08-03T16:03:16.642Z,1.77
2022-08-03T16:05:44.918Z,1.67
2022-08-03T16:08:14.008Z,1.52
2022-08-03T16:10:43.856Z,1.63
2022-08-03T16:13:11.848Z,2.22
2022-08-03T16:15:40.717Z,1.50
2022-08-03T16:18:09.052Z,1.77
2022-08-03T16:20:37.552Z,1.73
2022-08-03T16:23:11.525Z,2.22
2022-08-03T16:25:41.197Z,1.88
2022-08-03T16:28:14.963Z,2.17
2022-08-03T16:33:16.939Z,2.30
2022-08-03T16:35:45.920Z,1.90
2022-08-03T16:38:18.556Z,2.05
2022-08-03T16:40:51.502Z,2.13
2022-08-03T16:43:23.195Z,2.28
2022-08-03T16:45:52.044Z,1.90
2022-08-03T16:48:20.432Z,1.80
2022-08-03T16:50:48.838Z,2.20
2022-08-03T16:53:18.699Z,1.52
2022-08-03T16:56:05.572Z,1.42
2022-08-03T16:58:42.145Z,1.80
2022-08-03T17:01:22.350Z,1.60
2022-08-03T17:04:02.046Z,1.90
2022-08-03T17:06:35.140Z,1.73
2022-08-03T17:09:08.871Z,1.73
2022-08-03T17:11:44.031Z,1.80
2022-08-03T17:14:17.505Z,2.15
2022-08-03T17:16:52.530Z,1.98
2022-08-03T17:19:23.965Z,1.67
2022-08-03T17:21:59.695Z,1.70
2022-08-03T17:24:32.342Z,1.80
2022-08-03T17:27:03.646Z,1.63
2022-08-03T17:29:45.187Z,1.77
2022-08-03T17:32:21.406Z,1.60
2022-08-03T17:34:50.276Z,1.50
2022-08-03T17:37:50.673Z,2.28
2022-08-03T17:40:16.001Z,2.38
2022-08-03T17:42:50.671Z,2.22
2022-08-03T17:45:21.321Z,1.48
2022-08-03T17:47:57.532Z,2.42
2022-08-03T17:50:35.477Z,2.30
2022-08-03T17:53:15.240Z,1.92
2022-08-03T17:56:04.819Z,1.85
2022-08-03T17:58:43.848Z,2.17
2022-08-03T18:01:59.801Z,2.00
2022-08-03T18:04:30.028Z,1.35
2022-08-03T18:07:11.824Z,1.73
2022-08-03T18:10:04.078Z,1.75
2022-08-03T18:12:44.358Z,1.48
2022-08-03T18:15:21.944Z,1.98
2022-08-03T18:17:58.082Z,2.40
2022-08-03T18:20:40.908Z,2.70
2022-08-03T18:23:24.940Z,1.70
2022-08-03T18:26:00.648Z,1.67
2022-08-03T18:28:29.617Z,1.63
2022-08-03T18:30:58.410Z,1.73
2022-08-03T18:34:18.876Z,1.90
2022-08-03T18:36:21.950Z,1.73
2022-08-03T18:39:01.621Z,1.70
2022-08-03T18:41:34.345Z,1.60
2022-08-03T18:44:09.627Z,1.42
2022-08-03T18:47:07.541Z,3.03
2022-08-03T18:50:04.508Z,2.20
2022-08-03T18:52:45.924Z,1.48
2022-08-03T18:55:33.655Z,2.38
2022-08-03T18:58:15.922Z,2.08
2022-08-03T19:00:55.030Z,2.78
2022-08-03T19:03:42.738Z,2.60
2022-08-03T19:06:20.613Z,2.17
2022-08-03T19:08:55.580Z,2.55
2022-08-03T19:12:13.273Z,2.70
2022-08-03T19:14:28.791Z,2.85
2022-08-03T19:17:04.776Z,2.35
2022-08-03T19:19:43.810Z,2.50
2022-08-03T19:22:16.326Z,2.90
2022-08-03T19:24:46.989Z,2.95
2022-08-03T19:27:15.861Z,3.10
2022-08-03T19:29:59.123Z,3.40
2022-08-03T19:32:30.808Z,3.30
2022-08-03T19:35:00.446Z,3.42
2022-08-03T19:37:38.422Z,3.67
2022-08-03T19:40:10.646Z,3.40
2022-08-03T19:42:45.335Z,3.50
2022-08-03T19:45:17.717Z,3.85
2022-08-03T19:47:48.559Z,3.40
2022-08-03T19:50:17.838Z,3.42
2022-08-03T19:52:50.442Z,4.72
2022-08-03T19:55:19.052Z,4.43
2022-08-03T19:57:49.516Z,3.85
2022-08-03T20:00:26.173Z,3.95
2022-08-03T20:02:55.262Z,4.22
2022-08-03T20:05:23.627Z,4.38
2022-08-03T20:07:53.985Z,3.65
2022-08-03T20:10:22.464Z,4.68
2022-08-03T20:12:50.896Z,4.45
2022-08-03T20:15:22.480Z,4.68
2022-08-03T20:18:00.143Z,4.43
2022-08-03T20:20:31.143Z,5.32
2022-08-03T20:23:06.885Z,5.63
2022-08-03T20:25:48.604Z,5.80
2022-08-03T20:28:26.726Z,5.30
2022-08-03T20:30:55.920Z,5.45
2022-08-03T20:33:34.562Z,5.07
2022-08-03T20:36:12.881Z,6.18
2022-08-03T20:38:47.337Z,6.00
2022-08-03T20:41:16.049Z,5.95
2022-08-03T20:43:44.277Z,6.13
2022-08-03T20:46:35.330Z,6.18
2022-08-03T20:49:04.048Z,5.72
2022-08-03T20:51:49.083Z,5.55
2022-08-03T20:54:29.519Z,5.70
2022-08-03T20:57:00.425Z,6.10
2022-08-03T20:59:36.916Z,6.03
2022-08-03T21:02:19.784Z,6.10
2022-08-03T21:04:57.585Z,5.53
2022-08-03T21:08:04.096Z,5.80
2022-08-03T21:10:18.237Z,6.60
2022-08-03T21:12:52.580Z,7.03
2022-08-03T21:18:14.511Z,5.15
2022-08-03T21:20:45.021Z,5.78
2022-08-03T21:23:37.023Z,5.35
2022-08-03T21:26:04.887Z,6.00
2022-08-03T21:28:33.310Z,6.07
2022-08-03T21:31:01.868Z,5.82
2022-08-03T21:33:30.862Z,6.55
2022-08-03T21:36:01.866Z,6.15
2022-08-03T21:38:32.787Z,6.40
2022-08-03T21:41:02.976Z,6.47
2022-08-03T21:43:32.502Z,6.45
2022-08-03T21:46:04.072Z,6.13
2022-08-03T21:48:38.213Z,7.00
2022-08-03T21:51:07.988Z,6.40
2022-08-03T21:54:03.150Z,6.72
2022-08-03T21:56:27.667Z,6.57
2022-08-03T21:59:04.022Z,6.55
2022-08-03T22:01:35.521Z,6.63
2022-08-03T22:04:06.899Z,6.47
2022-08-03T22:06:35.782Z,6.07
2022-08-03T22:09:07.230Z,7.03
2022-08-03T22:11:37.387Z,6.80
2022-08-03T22:14:07.535Z,6.95
2022-08-03T22:16:35.541Z,6.70
2022-08-03T22:19:03.792Z,6.63
2022-08-03T22:21:35.773Z,7.00
2022-08-03T22:24:07.336Z,6.22
2022-08-03T22:26:40.356Z,5.88
2022-08-03T22:29:10.080Z,6.57
2022-08-03T22:31:58.363Z,7.80
2022-08-03T22:34:28.247Z,7.28
2022-08-03T22:37:02.454Z,7.05
2022-08-03T22:41:59.762Z,7.85
2022-08-03T22:44:29.230Z,8.20
2022-08-03T22:46:57.601Z,10.18
2022-08-03T22:49:28.152Z,11.10
2022-08-03T22:51:58.664Z,10.27
2022-08-03T22:54:26.830Z,10.75
2022-08-03T22:56:55.268Z,10.15
2022-08-03T22:59:40.159Z,11.15
2022-08-03T23:02:20.435Z,9.90
2022-08-03T23:04:52.475Z,9.82
2022-08-03T23:07:31.316Z,12.90
2022-08-03T23:10:00.043Z,11.07
2022-08-03T23:12:30.695Z,13.38
2022-08-03T23:15:02.762Z,12.68
2022-08-03T23:17:33.885Z,13.30
2022-08-03T23:20:06.325Z,13.23
2022-08-03T23:22:34.933Z,13.82
2022-08-03T23:25:04.966Z,12.35
2022-08-03T23:27:33.838Z,13.85
2022-08-03T23:30:03.278Z,13.93
2022-08-03T23:32:32.651Z,14.07
2022-08-03T23:35:20.248Z,15.07
2022-08-03T23:38:04.006Z,14.07
2022-08-03T23:40:38.252Z,14.45
2022-08-03T23:43:06.707Z,16.15
2022-08-03T23:45:37.507Z,16.75
2022-08-03T23:48:07.520Z,14.02
2022-08-03T23:50:44.055Z,14.77
2022-08-03T23:53:18.983Z,15.02
2022-08-03T23:56:01.889Z,17.35
2022-08-03T23:58:47.969Z,14.40
